Time;durP1;ratioP1;P1;durP2;ratioP2;P2;SDS_P1;SDS_P2;PMS_P1;PMS_P2;Temp;Humidity;BMP_temperature;BMP_pressure;BME280_temperature;BME280_humidity;BME280_pressure;Samples;Min_cycle;Max_cycle;Signal;HPM_P1;HPM_P2
2023/07/31 00:02:03;;;;;;;3.30;2.13;;;17.40;99.90;;;;;;5097432;28;20216;-53
2023/07/31 00:04:29;;;;;;;2.73;1.87;;;17.50;99.90;;;;;;5079689;28;20364;-50
2023/07/31 00:06:54;;;;;;;2.57;1.93;;;17.40;99.90;;;;;;5096652;28;20540;-49
2023/07/31 00:09:20;;;;;;;3.77;1.97;;;17.40;99.90;;;;;;5097616;28;20184;-49
2023/07/31 00:11:46;;;;;;;5.13;2.53;;;17.30;1.00;;;;;;5097732;28;20512;-51
2023/07/31 00:14:11;;;;;;;3.37;2.10;;;17.20;1.00;;;;;;5097720;28;20614;-51
2023/07/31 00:16:37;;;;;;;4.33;2.17;;;17.20;1.00;;;;;;5096767;28;20278;-48
2023/07/31 00:19:02;;;;;;;3.23;2.40;;;17.10;1.00;;;;;;5097730;28;20188;-53
2023/07/31 00:21:28;;;;;;;3.80;2.40;;;17.10;1.00;;;;;;5097101;28;20208;-49
2023/07/31 00:23:54;;;;;;;3.87;2.17;;;17.10;99.90;;;;;;5097524;28;20223;-49
2023/07/31 00:26:19;;;;;;;3.07;2.77;;;17.20;1.00;;;;;;5097320;28;20594;-50
2023/07/31 00:28:45;;;;;;;4.67;2.30;;;17.10;1.00;;;;;;5097286;28;20188;-48
2023/07/31 00:31:10;;;;;;;4.17;2.97;;;17.10;1.00;;;;;;5096820;28;20206;-51
2023/07/31 00:33:36;;;;;;;6.13;2.50;;;16.90;54.30;;;;;;5096942;28;20250;-49
2023/07/31 00:36:02;;;;;;;3.10;2.60;;;16.80;99.90;;;;;;5096210;28;20172;-49
2023/07/31 00:38:28;;;;;;;5.57;2.10;;;16.70;99.90;;;;;;5096734;28;20279;-49
2023/07/31 00:40:53;;;;;;;5.17;2.80;;;16.50;1.00;;;;;;5096904;28;20478;-50
2023/07/31 00:43:19;;;;;;;5.80;2.33;;;16.40;99.90;;;;;;5097230;28;20200;-52
2023/07/31 00:45:45;;;;;;;2.70;2.20;;;16.30;99.90;;;;;;5096968;28;20262;-49
2023/07/31 00:48:11;;;;;;;3.53;2.30;;;16.30;28.90;;;;;;5096731;28;20485;-50
2023/07/31 00:50:37;;;;;;;3.00;2.37;;;16.20;35.50;;;;;;5096446;28;20173;-50
2023/07/31 00:53:02;;;;;;;4.90;3.03;;;16.30;1.00;;;;;;5077851;28;20594;-50
2023/07/31 00:55:29;;;;;;;3.70;2.40;;;16.20;1.00;;;;;;5096728;28;20492;-49
2023/07/31 00:57:55;;;;;;;4.20;3.20;;;16.20;1.00;;;;;;5078998;28;20257;-49
2023/07/31 01:00:21;;;;;;;4.10;2.57;;;16.10;39.80;;;;;;5096647;28;20954;-52
2023/07/31 01:02:49;;;;;;;3.10;2.27;;;16.00;99.90;;;;;;5096242;28;20518;-50
2023/07/31 01:05:15;;;;;;;3.30;2.50;;;16.00;1.00;;;;;;5078667;28;20259;-50
2023/07/31 01:07:50;;;;;;;4.33;3.30;;;16.00;99.90;;;;;;5095919;28;20828;-50
2023/07/31 01:10:30;;;;;;;7.23;2.83;;;15.90;99.90;;;;;;5094887;28;20425;-49
2023/07/31 01:12:57;;;;;;;4.13;2.30;;;15.70;1.00;;;;;;5077747;28;20441;-50
2023/07/31 01:15:23;;;;;;;4.13;3.00;;;15.60;1.00;;;;;;5096627;28;20423;-51
2023/07/31 01:17:48;;;;;;;5.87;2.40;;;15.60;99.90;;;;;;5096004;28;20426;-51
2023/07/31 01:20:18;;;;;;;5.30;2.67;;;15.50;99.90;;;;;;5094499;28;20216;-50
2023/07/31 01:22:59;;;;;;;6.00;2.50;;;15.50;1.90;;;;;;5078184;28;20479;-50
2023/07/31 01:25:25;;;;;;;3.10;1.60;;;15.50;99.90;;;;;;5096289;28;20509;-49
2023/07/31 01:28:04;;;;;;;3.70;2.43;;;15.50;1.00;;;;;;5095171;28;20521;-52
2023/07/31 01:30:35;;;;;;;4.30;2.50;;;15.50;1.00;;;;;;5060091;28;20307;-48
2023/07/31 01:33:06;;;;;;;3.00;2.30;;;15.40;1.00;;;;;;5077379;28;20446;-49
2023/07/31 01:35:34;;;;;;;10.70;2.10;;;15.40;1.00;;;;;;5061163;28;20421;-51
2023/07/31 01:38:00;;;;;;;4.80;2.50;;;15.40;59.30;;;;;;5095094;28;20554;-48
2023/07/31 01:40:26;;;;;;;4.00;2.77;;;15.40;99.90;;;;;;5094598;28;20917;-48
2023/07/31 01:42:51;;;;;;;8.17;2.73;;;15.50;1.00;;;;;;5095385;28;20272;-49
2023/07/31 01:45:17;;;;;;;5.07;2.10;;;15.50;1.00;;;;;;5094465;28;20215;-51
2023/07/31 01:47:43;;;;;;;3.17;2.60;;;15.40;1.00;;;;;;5096402;28;20180;-50
2023/07/31 01:50:09;;;;;;;4.80;3.20;;;15.30;99.90;;;;;;5095585;28;20565;-51
2023/07/31 01:52:34;;;;;;;4.83;2.70;;;15.30;99.90;;;;;;5095943;28;20460;-51
2023/07/31 01:55:00;;;;;;;4.50;2.90;;;15.40;99.90;;;;;;5077448;28;20433;-50
2023/07/31 01:57:26;;;;;;;5.33;2.53;;;15.40;20.50;;;;;;5095938;28;20282;-50
2023/07/31 01:59:53;;;;;;;2.90;2.10;;;15.50;1.00;;;;;;5095881;28;20247;-52
2023/07/31 02:02:19;;;;;;;3.03;2.10;;;15.60;1.00;;;;;;5096122;28;20200;-49
2023/07/31 02:04:45;;;;;;;5.00;2.20;;;15.70;1.00;;;;;;5095664;28;20832;-50
2023/07/31 02:07:10;;;;;;;3.50;2.33;;;15.70;1.00;;;;;;5094721;28;20451;-49
2023/07/31 02:09:36;;;;;;;2.80;2.50;;;15.80;1.00;;;;;;5095763;28;20211;-53
2023/07/31 02:12:02;;;;;;;3.90;2.20;;;15.90;99.90;;;;;;5095946;28;20249;-51
2023/07/31 02:14:27;;;;;;;2.87;2.57;;;16.00;99.90;;;;;;5095347;28;20191;-51
2023/07/31 02:16:53;;;;;;;4.90;2.23;;;16.20;1.00;;;;;;5095497;28;20194;-52
2023/07/31 02:19:19;;;;;;;3.67;2.17;;;16.30;99.90;;;;;;5095455;28;20242;-51
2023/07/31 02:21:44;;;;;;;3.37;2.40;;;16.30;99.90;;;;;;5094797;28;20774;-53
2023/07/31 02:24:10;;;;;;;4.10;2.43;;;16.30;1.00;;;;;;5095713;28;20263;-49
2023/07/31 02:26:36;;;;;;;4.10;2.60;;;16.20;1.00;;;;;;5095813;28;20264;-50
2023/07/31 02:29:01;;;;;;;3.70;2.33;;;16.00;1.00;;;;;;5094901;28;20459;-50
2023/07/31 02:31:27;;;;;;;2.80;2.07;;;15.80;99.90;;;;;;5095734;28;20253;-51
2023/07/31 02:34:17;;;;;;;4.30;2.20;;;15.60;1.00;;;;;;5096460;28;20193;-50
2023/07/31 02:36:44;;;;;;;5.90;2.53;;;15.50;99.90;;;;;;5109574;28;20275;-49
2023/07/31 02:39:10;;;;;;;5.37;2.30;;;15.30;1.00;;;;;;5116205;28;20502;-51
2023/07/31 02:41:35;;;;;;;3.57;2.40;;;15.30;99.90;;;;;;5115343;28;20297;-52
2023/07/31 02:44:01;;;;;;;4.00;2.30;;;15.30;1.00;;;;;;5096707;28;20274;-50
2023/07/31 02:46:26;;;;;;;3.20;2.47;;;15.20;1.00;;;;;;5113865;28;20194;-51
2023/07/31 02:48:52;;;;;;;5.93;2.27;;;15.20;1.00;;;;;;5112527;28;20195;-51
2023/07/31 02:51:18;;;;;;;5.80;3.03;;;15.20;1.00;;;;;;5111779;28;20199;-49
2023/07/31 02:53:44;;;;;;;3.80;2.20;;;15.20;1.00;;;;;;5111491;28;20184;-53
2023/07/31 02:56:09;;;;;;;6.43;2.60;;;15.20;1.00;;;;;;5094245;28;20279;-50
2023/07/31 02:58:35;;;;;;;3.47;2.43;;;15.20;1.00;;;;;;5113156;28;20184;-48
2023/07/31 03:01:00;;;;;;;4.20;2.27;;;15.10;1.00;;;;;;5112930;28;20694;-52
2023/07/31 03:03:26;;;;;;;3.20;2.10;;;15.10;1.00;;;;;;5112344;28;20279;-49
2023/07/31 03:05:52;;;;;;;7.13;2.60;;;15.20;1.00;;;;;;5113766;28;20188;-50
2023/07/31 03:08:18;;;;;;;2.97;2.40;;;15.30;99.90;;;;;;5113242;28;20431;-50
2023/07/31 03:10:44;;;;;;;3.77;2.27;;;15.20;99.90;;;;;;5113435;28;20414;-50
2023/07/31 03:13:10;;;;;;;3.93;2.90;;;15.30;99.90;;;;;;5114942;28;20301;-49
2023/07/31 03:15:35;;;;;;;4.40;2.57;;;15.30;99.90;;;;;;5115545;28;20425;-50
2023/07/31 03:18:01;;;;;;;5.23;2.70;;;15.10;99.90;;;;;;5115085;28;20260;-50
2023/07/31 03:20:26;;;;;;;4.20;2.40;;;15.20;99.90;;;;;;5114934;28;20231;-49
2023/07/31 03:22:52;;;;;;;5.37;3.37;;;15.20;99.90;;;;;;5115324;28;20579;-48
2023/07/31 03:25:18;;;;;;;5.20;3.00;;;15.20;99.90;;;;;;5097562;28;20200;-50
2023/07/31 03:27:44;;;;;;;5.23;2.77;;;15.20;1.00;;;;;;5097214;28;20422;-49
2023/07/31 03:30:09;;;;;;;3.53;2.23;;;15.20;99.90;;;;;;5115489;28;20184;-48
2023/07/31 03:32:35;;;;;;;7.90;2.80;;;15.40;1.00;;;;;;5115828;28;20191;-52
2023/07/31 03:35:01;;;;;;;5.80;2.50;;;15.40;99.90;;;;;;5115266;28;20428;-49
2023/07/31 03:37:27;;;;;;;4.27;2.10;;;15.40;1.00;;;;;;5115565;28;20256;-48
2023/07/31 03:39:53;;;;;;;3.13;2.63;;;15.40;1.00;;;;;;5114736;28;20437;-47
2023/07/31 03:42:18;;;;;;;5.50;2.57;;;15.40;1.00;;;;;;5115577;28;20215;-50
2023/07/31 03:44:44;;;;;;;4.10;2.80;;;15.30;1.00;;;;;;5118896;28;20476;-50
2023/07/31 03:47:09;;;;;;;4.67;2.60;;;15.20;99.90;;;;;;5118665;28;20237;-47
2023/07/31 03:49:35;;;;;;;3.60;2.57;;;15.20;99.90;;;;;;5118409;28;20267;-49
2023/07/31 03:52:01;;;;;;;3.60;2.80;;;15.30;1.00;;;;;;5119067;28;20195;-47
2023/07/31 03:54:26;;;;;;;4.33;2.70;;;15.30;1.00;;;;;;5118868;28;20439;-47
2023/07/31 03:56:52;;;;;;;4.00;2.30;;;15.30;23.10;;;;;;5118457;28;20275;-52
2023/07/31 03:59:17;;;;;;;4.07;2.87;;;15.30;99.90;;;;;;5115794;28;20419;-49
2023/07/31 04:01:43;;;;;;;3.70;2.40;;;15.40;14.70;;;;;;5116888;28;20607;-49
2023/07/31 04:04:09;;;;;;;4.63;2.20;;;15.50;55.60;;;;;;5116327;28;20192;-48
2023/07/31 04:06:34;;;;;;;6.00;2.60;;;15.50;1.00;;;;;;5116416;28;20207;-49
2023/07/31 04:09:01;;;;;;;5.20;2.50;;;15.70;1.00;;;;;;5115590;28;20281;-50
2023/07/31 04:11:27;;;;;;;3.67;2.70;;;15.70;1.00;;;;;;5116248;28;20184;-48
2023/07/31 04:13:52;;;;;;;4.00;2.13;;;15.70;99.90;;;;;;5117179;28;20428;-48
2023/07/31 04:16:18;;;;;;;4.40;2.60;;;15.70;99.90;;;;;;5117761;28;20266;-48
2023/07/31 04:18:43;;;;;;;3.93;2.50;;;15.60;1.00;;;;;;5118398;28;20576;-50
2023/07/31 04:21:10;;;;;;;3.73;2.43;;;15.60;1.00;;;;;;5117337;28;20508;-48
2023/07/31 04:23:35;;;;;;;5.00;2.60;;;15.70;99.90;;;;;;5116835;28;20183;-49
2023/07/31 04:26:01;;;;;;;3.30;2.53;;;15.60;1.00;;;;;;5116074;28;20735;-52
2023/07/31 04:28:26;;;;;;;4.57;3.23;;;15.60;1.00;;;;;;5097820;28;20183;-51
2023/07/31 04:30:53;;;;;;;4.73;2.80;;;15.60;1.00;;;;;;5116638;28;20184;-48
2023/07/31 04:33:19;;;;;;;2.60;2.00;;;15.70;1.00;;;;;;5115533;28;20187;-49
2023/07/31 04:35:53;;;;;;;3.30;2.27;;;15.70;1.00;;;;;;5115445;28;20470;-51
2023/07/31 04:38:21;;;;;;;3.40;2.40;;;15.80;99.90;;;;;;5115670;28;20548;-50
2023/07/31 04:40:47;;;;;;;4.23;2.57;;;15.80;1.00;;;;;;5098657;28;20744;-51
2023/07/31 04:43:13;;;;;;;4.03;2.67;;;15.80;99.90;;;;;;5117555;28;20437;-51
2023/07/31 04:45:39;;;;;;;4.93;2.47;;;15.80;99.90;;;;;;5117238;28;20437;-48
2023/07/31 04:48:04;;;;;;;3.50;2.53;;;15.90;99.90;;;;;;5116988;28;20285;-49
2023/07/31 04:50:30;;;;;;;3.80;2.67;;;15.90;99.90;;;;;;5117082;28;20585;-49
2023/07/31 04:52:56;;;;;;;10.90;2.50;;;16.00;94.20;;;;;;5116508;28;20176;-51
2023/07/31 04:55:22;;;;;;;4.13;2.50;;;15.90;99.90;;;;;;5116558;28;20179;-51
2023/07/31 04:57:47;;;;;;;5.73;2.60;;;16.00;99.90;;;;;;5102451;27;20472;-49
2023/07/31 05:00:13;;;;;;;3.90;2.60;;;16.00;99.90;;;;;;5091896;28;20635;-52
2023/07/31 05:02:38;;;;;;;4.20;2.30;;;16.00;22.70;;;;;;5091004;28;20848;-50
2023/07/31 05:05:04;;;;;;;2.97;2.20;;;16.10;1.00;;;;;;5090361;28;20181;-50
2023/07/31 05:07:30;;;;;;;4.17;2.40;;;16.10;1.00;;;;;;5090646;28;20203;-48
2023/07/31 05:09:55;;;;;;;3.00;2.40;;;16.20;1.00;;;;;;5090051;28;20553;-53
2023/07/31 05:12:21;;;;;;;3.50;2.57;;;16.20;1.00;;;;;;5093133;28;20192;-51
2023/07/31 05:14:46;;;;;;;6.63;2.67;;;16.10;1.00;;;;;;5093962;28;20260;-51
2023/07/31 05:17:12;;;;;;;3.33;2.30;;;16.20;1.00;;;;;;5093920;28;20196;-52
2023/07/31 05:19:38;;;;;;;3.33;2.53;;;16.20;1.00;;;;;;5094278;28;20188;-46
2023/07/31 05:22:03;;;;;;;4.00;2.23;;;16.30;1.00;;;;;;5094618;28;20220;-51
2023/07/31 05:24:29;;;;;;;6.50;2.43;;;16.20;1.00;;;;;;5095993;28;20188;-50
2023/07/31 05:26:55;;;;;;;5.50;3.23;;;16.30;1.00;;;;;;5094832;28;20206;-50
2023/07/31 05:29:20;;;;;;;4.17;2.53;;;16.30;1.00;;;;;;5095608;28;20203;-53
2023/07/31 05:31:46;;;;;;;3.73;2.20;;;16.30;1.00;;;;;;5094298;28;20682;-48
2023/07/31 05:34:12;;;;;;;3.53;2.40;;;16.40;1.00;;;;;;5094316;28;20196;-52
2023/07/31 05:36:38;;;;;;;3.83;2.10;;;16.40;1.00;;;;;;5094331;28;20470;-52
2023/07/31 05:39:07;;;;;;;4.90;3.37;;;16.40;1.00;;;;;;5093726;28;20459;-49
2023/07/31 05:41:32;;;;;;;3.63;2.17;;;16.60;99.90;;;;;;5093023;28;20208;-49
2023/07/31 05:43:58;;;;;;;3.20;2.57;;;16.80;99.90;;;;;;5075889;28;20471;-49
2023/07/31 05:46:23;;;;;;;3.33;2.67;;;16.90;1.00;;;;;;5089971;28;20176;-49
2023/07/31 05:48:49;;;;;;;5.40;3.00;;;17.00;1.00;;;;;;5091825;28;20672;-50
2023/07/31 05:51:15;;;;;;;3.30;2.80;;;17.00;1.00;;;;;;5090996;28;20185;-49
2023/07/31 05:53:40;;;;;;;4.63;2.60;;;17.00;1.00;;;;;;5092271;28;20176;-51
2023/07/31 05:56:06;;;;;;;6.30;2.50;;;17.00;1.00;;;;;;5092338;28;20431;-52
2023/07/31 05:58:32;;;;;;;2.53;1.90;;;17.20;99.90;;;;;;5073669;28;20416;-50
2023/07/31 06:00:57;;;;;;;3.80;2.37;;;17.10;1.00;;;;;;5092611;28;20943;-52
2023/07/31 06:03:23;;;;;;;3.40;2.30;;;17.20;99.90;;;;;;5092893;28;20172;-50
2023/07/31 06:05:49;;;;;;;3.00;2.33;;;17.20;99.90;;;;;;5092957;28;20569;-49
2023/07/31 06:08:14;;;;;;;3.50;2.30;;;17.30;99.90;;;;;;5092126;28;20418;-54
2023/07/31 06:10:40;;;;;;;2.80;2.40;;;17.20;1.00;;;;;;5090995;28;20538;-49
2023/07/31 06:13:05;;;;;;;5.40;2.70;;;17.40;99.90;;;;;;5091877;28;20188;-50
2023/07/31 06:15:31;;;;;;;4.53;2.43;;;17.40;99.90;;;;;;5093760;28;20192;-49
2023/07/31 06:17:57;;;;;;;2.73;2.33;;;17.50;99.90;;;;;;5093632;28;20208;-51
2023/07/31 06:20:23;;;;;;;5.40;2.43;;;17.60;39.30;;;;;;5094403;28;20180;-50
2023/07/31 06:22:48;;;;;;;3.50;2.00;;;17.70;1.00;;;;;;5093478;28;20417;-52
2023/07/31 06:25:14;;;;;;;4.20;2.63;;;17.80;46.10;;;;;;5095395;28;20280;-51
2023/07/31 06:27:39;;;;;;;5.70;3.50;;;17.80;1.00;;;;;;5092874;28;20196;-54
2023/07/31 06:30:06;;;;;;;3.70;2.67;;;18.10;99.90;;;;;;5093054;28;20199;-53
2023/07/31 06:32:32;;;;;;;3.00;2.30;;;18.00;99.90;;;;;;5092492;28;20777;-51
2023/07/31 06:34:57;;;;;;;4.20;2.30;;;17.90;99.90;;;;;;5093064;28;20450;-51
2023/07/31 06:37:23;;;;;;;3.70;2.90;;;17.80;99.90;;;;;;5094785;28;20180;-50
2023/07/31 06:39:48;;;;;;;3.30;2.30;;;17.90;99.90;;;;;;5093892;28;20187;-52
2023/07/31 06:42:14;;;;;;;4.20;2.23;;;18.20;99.90;;;;;;5093264;28;20208;-50
2023/07/31 06:44:40;;;;;;;5.00;2.63;;;18.40;58.90;;;;;;5076256;28;20204;-54
2023/07/31 06:47:05;;;;;;;3.93;2.50;;;18.60;1.00;;;;;;5094227;28;20181;-49
2023/07/31 06:49:31;;;;;;;4.70;2.87;;;18.50;1.00;;;;;;5093524;28;20639;-54
2023/07/31 06:51:56;;;;;;;3.63;2.27;;;18.50;1.00;;;;;;5093609;28;20530;-54
2023/07/31 06:54:22;;;;;;;6.30;2.60;;;18.50;1.00;;;;;;5092887;28;20264;-51
2023/07/31 06:56:48;;;;;;;4.97;2.60;;;18.60;1.00;;;;;;5091698;28;20423;-53
2023/07/31 06:59:13;;;;;;;5.63;2.40;;;18.80;1.00;;;;;;5090421;28;20282;-52
2023/07/31 07:01:39;;;;;;;5.97;3.00;;;18.90;1.00;;;;;;5091270;28;20842;-52
2023/07/31 07:04:04;;;;;;;4.10;2.90;;;19.10;1.00;;;;;;5091734;28;20243;-49
2023/07/31 07:06:30;;;;;;;4.63;2.43;;;19.10;99.90;;;;;;5072936;28;20181;-53
2023/07/31 07:08:55;;;;;;;4.53;2.10;;;19.10;99.90;;;;;;5072500;28;20478;-53
2023/07/31 07:11:21;;;;;;;5.30;2.50;;;19.20;99.90;;;;;;5090627;28;20291;-54
2023/07/31 07:13:47;;;;;;;4.60;2.50;;;19.10;99.90;;;;;;5090917;28;20195;-52
2023/07/31 07:16:12;;;;;;;5.30;2.57;;;19.20;99.90;;;;;;5091975;28;20272;-51
2023/07/31 07:18:38;;;;;;;3.70;2.30;;;19.30;99.90;;;;;;5095430;28;20228;-49
2023/07/31 07:21:03;;;;;;;3.90;2.30;;;19.40;99.90;;;;;;5096996;28;20319;-51
2023/07/31 07:23:29;;;;;;;6.10;2.70;;;19.60;99.90;;;;;;5097889;28;20271;-51
2023/07/31 07:25:55;;;;;;;5.00;2.20;;;19.60;99.90;;;;;;5097786;28;20329;-56
2023/07/31 07:28:20;;;;;;;4.80;2.80;;;19.60;99.90;;;;;;5096452;28;20192;-53
2023/07/31 07:30:52;;;;;;;3.60;2.47;;;19.70;99.90;;;;;;5096431;28;20180;-52
2023/07/31 07:33:18;;;;;;;8.37;2.73;;;19.70;99.90;;;;;;5096549;28;20185;-51
2023/07/31 07:35:43;;;;;;;5.43;2.67;;;19.60;99.90;;;;;;5096323;28;20470;-51
2023/07/31 07:38:09;;;;;;;3.50;2.60;;;19.40;99.90;;;;;;5095070;28;20243;-54
2023/07/31 07:40:39;;;;;;;4.60;2.57;;;19.50;99.90;;;;;;5094344;28;20287;-54
2023/07/31 07:43:04;;;;;;;4.33;2.70;;;19.70;99.90;;;;;;5094392;28;20180;-55
2023/07/31 07:45:30;;;;;;;3.73;2.50;;;19.60;99.90;;;;;;5094079;28;20750;-53
2023/07/31 07:47:56;;;;;;;6.00;2.67;;;19.70;99.90;;;;;;5095629;28;20191;-54
2023/07/31 07:50:21;;;;;;;4.93;3.17;;;19.60;99.90;;;;;;5095684;28;20208;-55
2023/07/31 07:52:47;;;;;;;4.50;2.83;;;19.80;99.90;;;;;;5105565;28;20224;-51
2023/07/31 07:55:12;;;;;;;6.83;2.97;;;20.10;99.90;;;;;;5115604;28;20739;-52
2023/07/31 07:57:38;;;;;;;6.80;2.63;;;20.10;99.90;;;;;;5115818;28;20289;-53
2023/07/31 08:00:05;;;;;;;8.70;2.50;;;20.10;95.20;;;;;;5114151;28;20462;-54
2023/07/31 08:02:31;;;;;;;4.73;2.93;;;19.80;79.00;;;;;;5115849;28;20469;-55
2023/07/31 08:04:56;;;;;;;3.40;2.40;;;20.00;66.60;;;;;;5115181;28;20414;-52
2023/07/31 08:07:22;;;;;;;5.93;2.90;;;20.10;56.20;;;;;;5115743;28;20204;-53
2023/07/31 08:09:47;;;;;;;3.27;2.70;;;20.30;29.90;;;;;;5115213;28;20188;-52
2023/07/31 08:12:13;;;;;;;3.87;2.60;;;20.10;19.70;;;;;;5113970;28;20251;-51
2023/07/31 08:14:39;;;;;;;6.03;3.30;;;20.10;16.80;;;;;;5113581;28;20195;-54
2023/07/31 08:17:04;;;;;;;5.50;2.70;;;20.40;9.70;;;;;;5114321;28;20180;-52
2023/07/31 08:19:30;;;;;;;7.07;3.10;;;20.50;1.80;;;;;;5113484;28;20180;-54
2023/07/31 08:21:55;;;;;;;4.73;2.70;;;20.50;1.00;;;;;;5113232;28;20215;-53
2023/07/31 08:24:21;;;;;;;5.03;2.33;;;20.90;1.00;;;;;;5113638;28;20256;-49
2023/07/31 08:26:47;;;;;;;7.43;2.90;;;21.00;1.00;;;;;;5113461;28;20203;-51
2023/07/31 08:29:12;;;;;;;3.67;2.67;;;21.00;1.00;;;;;;5115225;28;20179;-54
2023/07/31 08:31:38;;;;;;;3.53;2.40;;;21.20;1.00;;;;;;5116396;28;20187;-53
2023/07/31 08:34:03;;;;;;;4.50;2.50;;;21.40;1.00;;;;;;5116762;28;20260;-51
2023/07/31 08:36:29;;;;;;;3.27;2.50;;;21.60;1.00;;;;;;5114613;28;20231;-52
2023/07/31 08:38:55;;;;;;;3.90;2.37;;;22.00;1.00;;;;;;5114045;28;20577;-54
2023/07/31 08:41:20;;;;;;;5.60;3.30;;;22.10;1.00;;;;;;5113956;28;20211;-55
2023/07/31 08:43:47;;;;;;;3.07;2.40;;;22.20;1.00;;;;;;5114559;28;20184;-55
2023/07/31 08:46:14;;;;;;;3.40;2.60;;;22.00;1.00;;;;;;5114304;28;20260;-52
2023/07/31 08:48:41;;;;;;;5.03;3.00;;;21.40;1.00;;;;;;5113822;28;20433;-51
2023/07/31 08:51:07;;;;;;;4.13;2.37;;;21.40;1.00;;;;;;5097433;28;20865;-53
2023/07/31 08:53:33;;;;;;;3.70;2.43;;;21.60;1.00;;;;;;5116321;28;20421;-52
2023/07/31 08:55:59;;;;;;;3.23;2.63;;;21.20;1.00;;;;;;5115363;28;20275;-53
2023/07/31 08:58:25;;;;;;;5.00;2.90;;;21.50;1.00;;;;;;5117226;28;20410;-52
2023/07/31 09:00:51;;;;;;;5.37;3.13;;;21.40;1.00;;;;;;5098354;28;20716;-52
2023/07/31 09:03:22;;;;;;;6.20;2.90;;;21.30;1.00;;;;;;5098050;28;20455;-54
2023/07/31 09:05:48;;;;;;;6.33;2.77;;;21.30;1.00;;;;;;5096850;28;20696;-51
2023/07/31 09:08:14;;;;;;;5.97;2.83;;;21.10;1.00;;;;;;5115725;28;20422;-50
2023/07/31 09:10:45;;;;;;;5.67;2.73;;;21.00;1.00;;;;;;5097137;28;20204;-48
2023/07/31 09:13:14;;;;;;;3.73;2.70;;;21.00;1.00;;;;;;5115212;28;20434;-51
2023/07/31 09:15:42;;;;;;;6.70;3.00;;;21.50;1.00;;;;;;5110889;28;20728;-55
2023/07/31 09:18:08;;;;;;;5.77;2.73;;;21.50;1.00;;;;;;5115231;28;20437;-55
2023/07/31 09:20:34;;;;;;;7.07;3.50;;;21.90;1.00;;;;;;5116098;28;20930;-49
2023/07/31 09:23:14;;;;;;;5.10;3.17;;;22.40;1.00;;;;;;5115307;28;20172;-48
2023/07/31 09:25:40;;;;;;;6.37;3.23;;;22.90;1.00;;;;;;5115858;28;20401;-50
2023/07/31 09:28:07;;;;;;;2.90;2.00;;;22.80;1.00;;;;;;5096988;28;20433;-50
2023/07/31 09:30:59;;;;;;;5.13;3.13;;;23.00;1.00;;;;;;5115393;28;20429;-52
2023/07/31 09:33:25;;;;;;;3.57;2.87;;;22.50;1.00;;;;;;5110607;28;20559;-53
2023/07/31 09:35:51;;;;;;;5.43;3.13;;;22.20;1.00;;;;;;5113113;28;20631;-51
2023/07/31 09:38:16;;;;;;;3.80;2.60;;;22.10;1.00;;;;;;5113667;28;20196;-52
2023/07/31 09:40:47;;;;;;;5.10;2.80;;;22.00;1.00;;;;;;5112639;28;20199;-53
2023/07/31 09:43:17;;;;;;;5.53;2.70;;;22.00;1.00;;;;;;5114172;28;20232;-51
2023/07/31 09:45:44;;;;;;;8.13;3.60;;;21.70;1.00;;;;;;5096281;28;20429;-52
2023/07/31 09:48:12;;;;;;;5.90;3.30;;;21.90;1.00;;;;;;5112392;28;20422;-49
2023/07/31 09:50:39;;;;;;;7.03;3.07;;;22.10;1.00;;;;;;5115615;28;20424;-49
2023/07/31 09:53:06;;;;;;;4.20;2.40;;;22.50;1.00;;;;;;5115728;28;20410;-49
2023/07/31 09:55:32;;;;;;;8.17;3.10;;;22.70;1.00;;;;;;5115839;28;20410;-51
2023/07/31 09:57:58;;;;;;;3.63;2.63;;;22.40;1.00;;;;;;5115300;28;20437;-50
2023/07/31 10:00:28;;;;;;;4.90;3.03;;;22.20;1.00;;;;;;5096431;28;20203;-50
2023/07/31 10:02:54;;;;;;;4.13;3.47;;;22.80;1.00;;;;;;5116049;28;20562;-51
2023/07/31 10:05:21;;;;;;;4.87;2.37;;;23.50;1.00;;;;;;5115839;28;20418;-52
2023/07/31 10:07:56;;;;;;;7.40;3.00;;;23.40;1.00;;;;;;5113976;28;20508;-54
2023/07/31 10:10:23;;;;;;;6.23;3.03;;;23.40;1.00;;;;;;5112661;28;20422;-51
2023/07/31 10:12:52;;;;;;;5.53;3.20;;;23.90;1.00;;;;;;5113272;28;20429;-51
2023/07/31 10:15:19;;;;;;;5.70;3.03;;;24.30;1.00;;;;;;5113404;28;21052;-51
2023/07/31 10:17:47;;;;;;;3.60;2.87;;;25.00;1.00;;;;;;5114298;28;20429;-51
2023/07/31 10:20:12;;;;;;;4.17;3.00;;;25.80;1.00;;;;;;5113861;28;20493;-49
2023/07/31 10:22:38;;;;;;;8.90;4.13;;;26.20;1.00;;;;;;5114006;28;21006;-51
2023/07/31 10:25:05;;;;;;;4.03;3.27;;;25.70;1.00;;;;;;5095441;28;20184;-53
2023/07/31 10:27:30;;;;;;;5.33;2.90;;;25.80;1.00;;;;;;5113686;28;20681;-50
2023/07/31 10:29:57;;;;;;;4.37;2.80;;;26.20;1.00;;;;;;5113322;28;20429;-50
2023/07/31 10:32:24;;;;;;;5.57;3.00;;;26.60;1.00;;;;;;5095355;28;20203;-53
2023/07/31 10:34:50;;;;;;;4.10;3.20;;;27.10;1.00;;;;;;5114154;28;20457;-50
2023/07/31 10:37:28;;;;;;;4.40;3.13;;;27.70;1.00;;;;;;5113387;28;20476;-51
2023/07/31 10:40:23;;;;;;;3.70;2.90;;;27.90;1.00;;;;;;5114058;28;20915;-52
2023/07/31 10:42:57;;;;;;;3.47;3.00;;;28.00;1.00;;;;;;5103635;28;20452;-49
2023/07/31 10:45:32;;;;;;;6.90;3.00;;;28.30;1.00;;;;;;5113214;28;20426;-49
2023/07/31 10:48:02;;;;;;;4.77;3.50;;;28.60;1.00;;;;;;5113219;28;20509;-50
2023/07/31 10:50:29;;;;;;;4.87;3.10;;;28.20;1.00;;;;;;5113334;28;20429;-53
2023/07/31 10:52:55;;;;;;;5.17;3.00;;;27.20;1.00;;;;;;5117634;28;20492;-53
2023/07/31 10:55:33;;;;;;;5.10;3.27;;;26.50;1.00;;;;;;5118380;28;20405;-50
2023/07/31 10:58:07;;;;;;;4.33;2.50;;;26.10;1.00;;;;;;5100509;28;20429;-50
2023/07/31 11:00:32;;;;;;;5.57;3.10;;;25.90;1.00;;;;;;5116760;28;20433;-49
2023/07/31 11:03:06;;;;;;;7.20;3.70;;;25.40;1.00;;;;;;5116618;28;20447;-52
2023/07/31 11:06:13;;;;;;;5.97;3.77;;;24.50;1.00;;;;;;5116241;28;20187;-49
2023/07/31 11:08:43;;;;;;;4.93;3.30;;;24.10;1.00;;;;;;5059328;28;20431;-49
2023/07/31 11:11:16;;;;;;;3.97;2.93;;;23.90;1.00;;;;;;5114952;28;20409;-47
2023/07/31 11:13:52;;;;;;;4.80;3.20;;;23.90;1.00;;;;;;5114400;28;20406;-52
2023/07/31 11:16:23;;;;;;;3.80;3.10;;;23.80;1.00;;;;;;5115454;28;20865;-49
2023/07/31 11:18:49;;;;;;;6.10;3.30;;;23.90;1.00;;;;;;5116630;28;20731;-52
2023/07/31 11:21:20;;;;;;;5.10;3.53;;;23.90;1.00;;;;;;5116723;28;20630;-48
2023/07/31 11:23:50;;;;;;;4.40;3.77;;;24.00;1.00;;;;;;5117203;28;20425;-54
2023/07/31 11:26:17;;;;;;;3.93;3.40;;;24.20;1.00;;;;;;5117172;28;20460;-52
2023/07/31 11:28:42;;;;;;;5.70;5.13;;;24.00;1.00;;;;;;5117220;28;20819;-52
2023/07/31 11:31:11;;;;;;;4.83;2.87;;;23.80;1.00;;;;;;5117395;28;20433;-49
2023/07/31 11:33:36;;;;;;;5.20;2.70;;;23.40;1.00;;;;;;5117986;28;20196;-53
2023/07/31 11:36:02;;;;;;;5.63;3.07;;;23.20;1.00;;;;;;5117298;28;20820;-49
2023/07/31 11:38:29;;;;;;;7.83;4.03;;;23.20;1.00;;;;;;5115910;28;20202;-49
2023/07/31 11:40:57;;;;;;;5.47;3.40;;;23.10;1.00;;;;;;5115724;28;20696;-46
2023/07/31 11:43:23;;;;;;;7.03;3.43;;;22.90;1.00;;;;;;5117088;28;20409;-49
2023/07/31 11:45:51;;;;;;;5.00;2.80;;;22.90;1.00;;;;;;5116897;28;20490;-46
2023/07/31 11:48:36;;;;;;;5.53;3.40;;;22.80;1.00;;;;;;5117009;28;20413;-47
2023/07/31 11:51:06;;;;;;;7.97;3.70;;;22.70;1.00;;;;;;5115826;28;20544;-48
2023/07/31 11:53:35;;;;;;;6.70;3.20;;;22.70;1.00;;;;;;5098825;28;20425;-48
2023/07/31 11:56:11;;;;;;;4.30;3.10;;;22.80;1.00;;;;;;5115947;28;20413;-48
2023/07/31 11:58:37;;;;;;;5.70;3.20;;;23.00;1.00;;;;;;5116278;28;20405;-51
2023/07/31 12:01:03;;;;;;;5.17;3.50;;;23.10;1.00;;;;;;5099072;28;20480;-52
2023/07/31 12:03:29;;;;;;;5.03;3.30;;;23.10;1.00;;;;;;5096652;28;20562;-47
2023/07/31 12:05:55;;;;;;;6.60;4.20;;;23.20;1.00;;;;;;5115444;28;20440;-46
2023/07/31 12:08:21;;;;;;;5.47;3.37;;;23.20;1.00;;;;;;5114420;28;20417;-49
2023/07/31 12:10:48;;;;;;;5.53;3.50;;;23.20;1.00;;;;;;5114331;28;20187;-48
2023/07/31 12:13:21;;;;;;;4.93;3.30;;;23.20;1.00;;;;;;5097144;28;20443;-50
2023/07/31 12:15:47;;;;;;;4.70;2.97;;;23.30;1.00;;;;;;5114950;28;20430;-50
2023/07/31 12:18:14;;;;;;;6.27;3.40;;;23.30;1.00;;;;;;5115770;28;20429;-47
2023/07/31 12:20:45;;;;;;;6.87;3.80;;;23.40;1.00;;;;;;5115504;28;20646;-47
2023/07/31 12:23:19;;;;;;;7.00;3.60;;;23.50;1.00;;;;;;5115814;28;20412;-47
2023/07/31 12:25:44;;;;;;;4.63;3.50;;;23.70;1.00;;;;;;5098617;28;20412;-46
2023/07/31 12:28:13;;;;;;;5.93;3.70;;;23.80;1.00;;;;;;5117111;28;20417;-48
2023/07/31 12:30:40;;;;;;;6.97;3.50;;;23.50;1.00;;;;;;5115367;28;20198;-46
2023/07/31 12:33:07;;;;;;;4.07;3.37;;;23.30;1.00;;;;;;5114568;28;20422;-45
2023/07/31 12:35:37;;;;;;;3.87;2.70;;;23.20;1.00;;;;;;5115080;28;20461;-51
2023/07/31 12:38:03;;;;;;;5.70;3.30;;;23.30;1.00;;;;;;5114314;28;20719;-46
2023/07/31 12:40:29;;;;;;;4.53;3.07;;;23.40;1.00;;;;;;5114238;28;20410;-46
2023/07/31 12:42:54;;;;;;;5.37;3.27;;;23.40;1.00;;;;;;5094880;28;20509;-47
2023/07/31 12:45:21;;;;;;;3.73;3.20;;;23.60;1.00;;;;;;5113792;28;20582;-48
2023/07/31 12:47:46;;;;;;;4.30;3.37;;;24.00;1.00;;;;;;5114561;28;20232;-47
2023/07/31 12:50:12;;;;;;;6.03;3.87;;;24.70;1.00;;;;;;5092620;28;20442;-47
2023/07/31 12:52:38;;;;;;;3.03;2.73;;;25.10;1.00;;;;;;5103279;28;20679;-49